AWE31 MDPP-TNCM
Flight info
| Callsign | AWE31 |
|---|---|
| Flight time | 1h 13m |
| Altitude | 39000 |
| Route | POKEG3C POKEG DCT PIXAR DCT KATOK M348 MEEGL DCT BQN RTE2 SJU RTE6 STT B520 PJM |
| Aircraft | B737/M-SDE2E3FGHIRWXY/LB1 |
Departure
| Time | 2026-04-12 02:17 |
|---|---|
| Airport | Gregorio Luperon International Airport (MDPP) |
Arrival
| Time | 2026-04-12 03:30 |
|---|---|
| Airport | Princess Juliana International Airport (TNCM) |
| Time | Latitude | Longitude | Altitude | Speed | Heading |
|---|---|---|---|---|---|
| 2026-04-12 01:43 | 19.75500 | -70.56520 | 33 ft | 0 kts | 39° |
| 2026-04-12 02:05 | 19.75490 | -70.56529 | 31 ft | 4 kts | 39° |
| 2026-04-12 02:05 | 19.75476 | -70.56541 | 33 ft | 4 kts | 39° |
| 2026-04-12 02:05 | 19.75455 | -70.56559 | 33 ft | 4 kts | 39° |
| 2026-04-12 02:06 | 19.75441 | -70.56570 | 33 ft | 6 kts | 39° |
| 2026-04-12 02:08 | 19.75449 | -70.56568 | 32 ft | 3 kts | 7° |
| 2026-04-12 02:09 | 19.75471 | -70.56579 | 33 ft | 4 kts | 332° |
| 2026-04-12 02:09 | 19.75500 | -70.56595 | 33 ft | 5 kts | 332° |
| 2026-04-12 02:09 | 19.75538 | -70.56611 | 33 ft | 6 kts | 341° |
| 2026-04-12 02:09 | 19.75585 | -70.56625 | 34 ft | 8 kts | 344° |
| 2026-04-12 02:10 | 19.75627 | -70.56656 | 33 ft | 8 kts | 290° |
| 2026-04-12 02:10 | 19.75620 | -70.56711 | 34 ft | 7 kts | 253° |
| 2026-04-12 02:10 | 19.75605 | -70.56763 | 34 ft | 7 kts | 252° |
| 2026-04-12 02:10 | 19.75590 | -70.56813 | 34 ft | 7 kts | 252° |
| 2026-04-12 02:11 | 19.75574 | -70.56861 | 34 ft | 7 kts | 251° |
| 2026-04-12 02:11 | 19.75560 | -70.56909 | 33 ft | 7 kts | 252° |
| 2026-04-12 02:11 | 19.75544 | -70.56961 | 33 ft | 9 kts | 252° |
| 2026-04-12 02:11 | 19.75535 | -70.57042 | 33 ft | 13 kts | 287° |
| 2026-04-12 02:12 | 19.75602 | -70.57126 | 33 ft | 17 kts | 315° |
| 2026-04-12 02:12 | 19.75685 | -70.57222 | 32 ft | 18 kts | 300° |
| 2026-04-12 02:12 | 19.75685 | -70.57352 | 30 ft | 18 kts | 255° |
| 2026-04-12 02:12 | 19.75647 | -70.57484 | 31 ft | 19 kts | 253° |
| 2026-04-12 02:13 | 19.75607 | -70.57623 | 32 ft | 20 kts | 253° |
| 2026-04-12 02:13 | 19.75571 | -70.57751 | 32 ft | 16 kts | 253° |
| 2026-04-12 02:13 | 19.75540 | -70.57855 | 33 ft | 13 kts | 252° |
| 2026-04-12 02:13 | 19.75515 | -70.57939 | 35 ft | 11 kts | 252° |
| 2026-04-12 02:14 | 19.75493 | -70.58014 | 35 ft | 10 kts | 253° |
| 2026-04-12 02:14 | 19.75473 | -70.58084 | 35 ft | 10 kts | 253° |
| 2026-04-12 02:14 | 19.75454 | -70.58152 | 33 ft | 10 kts | 256° |
| 2026-04-12 02:14 | 19.75442 | -70.58225 | 33 ft | 10 kts | 255° |
| 2026-04-12 02:15 | 19.75424 | -70.58297 | 34 ft | 10 kts | 255° |
| 2026-04-12 02:15 | 19.75410 | -70.58369 | 35 ft | 9 kts | 259° |
| 2026-04-12 02:15 | 19.75376 | -70.58386 | 35 ft | 5 kts | 158° |
| 2026-04-12 02:15 | 19.75368 | -70.58351 | 34 ft | 5 kts | 61° |
| 2026-04-12 02:16 | 19.75396 | -70.58325 | 35 ft | 5 kts | 46° |
| 2026-04-12 02:16 | 19.75413 | -70.58290 | 33 ft | 6 kts | 70° |
| 2026-04-12 02:16 | 19.75452 | -70.58152 | 34 ft | 48 kts | 73° |
| 2026-04-12 02:16 | 19.75615 | -70.57569 | 30 ft | 115 kts | 73° |
| 2026-04-12 02:17 | 19.75838 | -70.56578 | 83 ft | 160 kts | 78° |
| 2026-04-12 02:17 | 19.76162 | -70.55429 | 692 ft | 157 kts | 70° |
| 2026-04-12 02:17 | 19.76508 | -70.54348 | 1350 ft | 155 kts | 71° |
| 2026-04-12 02:17 | 19.76827 | -70.53273 | 1996 ft | 156 kts | 70° |
| 2026-04-12 02:18 | 19.77177 | -70.52089 | 2256 ft | 181 kts | 68° |
| 2026-04-12 02:18 | 19.77918 | -70.50931 | 2464 ft | 202 kts | 45° |
| 2026-04-12 02:18 | 19.78935 | -70.49792 | 2613 ft | 223 kts | 46° |
| 2026-04-12 02:18 | 19.80042 | -70.48542 | 2791 ft | 242 kts | 46° |
| 2026-04-12 02:19 | 19.81224 | -70.47202 | 3059 ft | 253 kts | 46° |
| 2026-04-12 02:19 | 19.82442 | -70.45816 | 3463 ft | 257 kts | 47° |
| 2026-04-12 02:19 | 19.83666 | -70.44420 | 3966 ft | 260 kts | 46° |
| 2026-04-12 02:19 | 19.84906 | -70.43004 | 4762 ft | 267 kts | 46° |
| 2026-04-12 02:20 | 19.86135 | -70.41522 | 5636 ft | 269 kts | 56° |
| 2026-04-12 02:20 | 19.86677 | -70.39622 | 6480 ft | 277 kts | 89° |
| 2026-04-12 02:20 | 19.86242 | -70.37615 | 7294 ft | 284 kts | 110° |
| 2026-04-12 02:20 | 19.85424 | -70.35682 | 8118 ft | 289 kts | 115° |
| 2026-04-12 02:21 | 19.84520 | -70.33764 | 9076 ft | 292 kts | 117° |
| 2026-04-12 02:21 | 19.83583 | -70.31816 | 9919 ft | 300 kts | 117° |
| 2026-04-12 02:21 | 19.82618 | -70.29806 | 10528 ft | 315 kts | 117° |
| 2026-04-12 02:21 | 19.81598 | -70.27663 | 11045 ft | 331 kts | 117° |
| 2026-04-12 02:22 | 19.80562 | -70.25471 | 11903 ft | 335 kts | 117° |
| 2026-04-12 02:22 | 19.79521 | -70.23254 | 12831 ft | 336 kts | 117° |
| 2026-04-12 02:22 | 19.78476 | -70.21017 | 13720 ft | 340 kts | 117° |
| 2026-04-12 02:22 | 19.77419 | -70.18748 | 14470 ft | 346 kts | 117° |
| 2026-04-12 02:23 | 19.76345 | -70.16440 | 15212 ft | 352 kts | 117° |
| 2026-04-12 02:23 | 19.75253 | -70.14091 | 16011 ft | 356 kts | 117° |
| 2026-04-12 02:23 | 19.74152 | -70.11720 | 16844 ft | 360 kts | 117° |
| 2026-04-12 02:23 | 19.73052 | -70.09352 | 17630 ft | 365 kts | 117° |
| 2026-04-12 02:24 | 19.71924 | -70.06925 | 18407 ft | 369 kts | 117° |
| 2026-04-12 02:24 | 19.70781 | -70.04466 | 19081 ft | 374 kts | 117° |
| 2026-04-12 02:24 | 19.69624 | -70.01977 | 19755 ft | 378 kts | 117° |
| 2026-04-12 02:24 | 19.68505 | -69.99571 | 20394 ft | 383 kts | 117° |
| 2026-04-12 02:25 | 19.67338 | -69.97063 | 21067 ft | 388 kts | 117° |
| 2026-04-12 02:25 | 19.66172 | -69.94560 | 21726 ft | 392 kts | 117° |
| 2026-04-12 02:25 | 19.64957 | -69.91951 | 22388 ft | 397 kts | 117° |
| 2026-04-12 02:25 | 19.63728 | -69.89314 | 23030 ft | 402 kts | 118° |
| 2026-04-12 02:26 | 19.62478 | -69.86631 | 23603 ft | 409 kts | 118° |
| 2026-04-12 02:26 | 19.61211 | -69.83917 | 24133 ft | 413 kts | 118° |
| 2026-04-12 02:26 | 19.59930 | -69.81171 | 24682 ft | 417 kts | 118° |
| 2026-04-12 02:26 | 19.58635 | -69.78396 | 25200 ft | 422 kts | 118° |
| 2026-04-12 02:27 | 19.57325 | -69.75593 | 25698 ft | 427 kts | 118° |
| 2026-04-12 02:27 | 19.56059 | -69.72886 | 26188 ft | 431 kts | 118° |
| 2026-04-12 02:27 | 19.54720 | -69.70022 | 26680 ft | 436 kts | 118° |
| 2026-04-12 02:27 | 19.53375 | -69.67150 | 27177 ft | 440 kts | 118° |
| 2026-04-12 02:28 | 19.52016 | -69.64248 | 27657 ft | 445 kts | 118° |
| 2026-04-12 02:28 | 19.50666 | -69.61364 | 28117 ft | 449 kts | 118° |
| 2026-04-12 02:28 | 19.49272 | -69.58388 | 28583 ft | 454 kts | 118° |
| 2026-04-12 02:28 | 19.47908 | -69.55478 | 29028 ft | 458 kts | 118° |
| 2026-04-12 02:29 | 19.46485 | -69.52444 | 29477 ft | 462 kts | 118° |
| 2026-04-12 02:29 | 19.45050 | -69.49384 | 29917 ft | 466 kts | 118° |
| 2026-04-12 02:29 | 19.43598 | -69.46291 | 30310 ft | 471 kts | 118° |
| 2026-04-12 02:29 | 19.42132 | -69.43169 | 30649 ft | 475 kts | 118° |
| 2026-04-12 02:30 | 19.40653 | -69.40021 | 30978 ft | 480 kts | 118° |
| 2026-04-12 02:30 | 19.39161 | -69.36847 | 31317 ft | 484 kts | 118° |
| 2026-04-12 02:30 | 19.37652 | -69.33641 | 31646 ft | 488 kts | 118° |
| 2026-04-12 02:30 | 19.36133 | -69.30412 | 31966 ft | 492 kts | 118° |
| 2026-04-12 02:31 | 19.34599 | -69.27155 | 32272 ft | 496 kts | 118° |
| 2026-04-12 02:31 | 19.33053 | -69.23875 | 32580 ft | 500 kts | 118° |
| 2026-04-12 02:31 | 19.31496 | -69.20572 | 32870 ft | 503 kts | 118° |
| 2026-04-12 02:31 | 19.29929 | -69.17249 | 33204 ft | 506 kts | 119° |
| 2026-04-12 02:32 | 19.28355 | -69.13913 | 33634 ft | 506 kts | 119° |
| 2026-04-12 02:32 | 19.26786 | -69.10589 | 34041 ft | 506 kts | 119° |
| 2026-04-12 02:32 | 19.25208 | -69.07250 | 34341 ft | 508 kts | 119° |
| 2026-04-12 02:32 | 19.23627 | -69.03905 | 34618 ft | 509 kts | 119° |
| 2026-04-12 02:33 | 19.22039 | -69.00548 | 34929 ft | 510 kts | 119° |
| 2026-04-12 02:33 | 19.20452 | -68.97195 | 35186 ft | 511 kts | 120° |
| 2026-04-12 02:33 | 19.18853 | -68.93821 | 35386 ft | 515 kts | 120° |
| 2026-04-12 02:33 | 19.17247 | -68.90429 | 35684 ft | 515 kts | 120° |
| 2026-04-12 02:34 | 19.15646 | -68.87051 | 36043 ft | 514 kts | 120° |
| 2026-04-12 02:34 | 19.14056 | -68.83669 | 36394 ft | 513 kts | 118° |
| 2026-04-12 02:34 | 19.12639 | -68.80206 | 36728 ft | 514 kts | 115° |
| 2026-04-12 02:34 | 19.11335 | -68.76686 | 36981 ft | 516 kts | 113° |
| 2026-04-12 02:35 | 19.10072 | -68.73131 | 37225 ft | 517 kts | 113° |
| 2026-04-12 02:35 | 19.08817 | -68.69570 | 37483 ft | 517 kts | 113° |
| 2026-04-12 02:35 | 19.07548 | -68.66006 | 37761 ft | 517 kts | 114° |
| 2026-04-12 02:35 | 19.06264 | -68.62452 | 38040 ft | 517 kts | 114° |
| 2026-04-12 02:36 | 19.04985 | -68.58957 | 38338 ft | 516 kts | 114° |
| 2026-04-12 02:36 | 19.03682 | -68.55423 | 38655 ft | 515 kts | 115° |
| 2026-04-12 02:36 | 19.02379 | -68.51902 | 38921 ft | 514 kts | 115° |
| 2026-04-12 02:36 | 19.01076 | -68.48387 | 39091 ft | 515 kts | 115° |
| 2026-04-12 02:37 | 18.98448 | -68.41302 | 39072 ft | 518 kts | 115° |
| 2026-04-12 02:37 | 18.95840 | -68.34258 | 39056 ft | 511 kts | 115° |
| 2026-04-12 02:38 | 18.93254 | -68.27283 | 39069 ft | 509 kts | 115° |
| 2026-04-12 02:38 | 18.90667 | -68.20323 | 39068 ft | 509 kts | 115° |
| 2026-04-12 02:39 | 18.88077 | -68.13361 | 39075 ft | 509 kts | 115° |
| 2026-04-12 02:39 | 18.85488 | -68.06407 | 39065 ft | 509 kts | 115° |
| 2026-04-12 02:40 | 18.82896 | -67.99457 | 39062 ft | 509 kts | 115° |
| 2026-04-12 02:40 | 18.80296 | -67.92508 | 39073 ft | 509 kts | 115° |
| 2026-04-12 02:41 | 18.77687 | -67.85549 | 39076 ft | 510 kts | 115° |
| 2026-04-12 02:41 | 18.75073 | -67.78581 | 39076 ft | 511 kts | 115° |
| 2026-04-12 02:42 | 18.72453 | -67.71603 | 39066 ft | 512 kts | 115° |
| 2026-04-12 02:43 | 18.68511 | -67.61124 | 39069 ft | 513 kts | 115° |
| 2026-04-12 02:43 | 18.65876 | -67.54130 | 39072 ft | 514 kts | 115° |
| 2026-04-12 02:44 | 18.63232 | -67.47118 | 39068 ft | 515 kts | 115° |
| 2026-04-12 02:44 | 18.60583 | -67.40103 | 39072 ft | 515 kts | 116° |
| 2026-04-12 02:45 | 18.57586 | -67.33333 | 39078 ft | 510 kts | 124° |
| 2026-04-12 02:45 | 18.54038 | -67.26866 | 39071 ft | 510 kts | 125° |
| 2026-04-12 02:46 | 18.50752 | -67.20224 | 39063 ft | 517 kts | 112° |
| 2026-04-12 02:46 | 18.49831 | -67.16553 | 39081 ft | 520 kts | 101° |
| 2026-04-12 02:46 | 18.49511 | -67.12752 | 39073 ft | 522 kts | 89° |
| 2026-04-12 02:47 | 18.49895 | -67.05146 | 39071 ft | 521 kts | 93° |
| 2026-04-12 02:47 | 18.49328 | -66.97548 | 39071 ft | 520 kts | 96° |
| 2026-04-12 02:48 | 18.48828 | -66.89938 | 39072 ft | 521 kts | 93° |
| 2026-04-12 02:48 | 18.48499 | -66.82316 | 39072 ft | 521 kts | 92° |
| 2026-04-12 02:49 | 18.48197 | -66.74688 | 39079 ft | 521 kts | 92° |
| 2026-04-12 02:49 | 18.47886 | -66.67067 | 39083 ft | 521 kts | 93° |
| 2026-04-12 02:50 | 18.47568 | -66.59438 | 39083 ft | 521 kts | 93° |
| 2026-04-12 02:50 | 18.47213 | -66.51813 | 39085 ft | 521 kts | 93° |
| 2026-04-12 02:51 | 18.46837 | -66.44189 | 39082 ft | 521 kts | 93° |
| 2026-04-12 02:51 | 18.46463 | -66.36562 | 39077 ft | 521 kts | 93° |
| 2026-04-12 02:52 | 18.46091 | -66.28941 | 39076 ft | 521 kts | 93° |
| 2026-04-12 02:52 | 18.45716 | -66.21318 | 39075 ft | 521 kts | 93° |
| 2026-04-12 02:53 | 18.45338 | -66.13698 | 39071 ft | 521 kts | 93° |
| 2026-04-12 02:53 | 18.44766 | -66.02285 | 39081 ft | 520 kts | 93° |
| 2026-04-12 02:54 | 18.44439 | -65.94732 | 39083 ft | 519 kts | 91° |
| 2026-04-12 02:54 | 18.44311 | -65.87136 | 39085 ft | 518 kts | 90° |
| 2026-04-12 02:55 | 18.44216 | -65.79547 | 39073 ft | 517 kts | 90° |
| 2026-04-12 02:55 | 18.44113 | -65.73257 | 39075 ft | 517 kts | 91° |
| 2026-04-12 02:56 | 18.43967 | -65.65687 | 38755 ft | 520 kts | 91° |
| 2026-04-12 02:56 | 18.43889 | -65.61866 | 38183 ft | 520 kts | 91° |
| 2026-04-12 02:56 | 18.43810 | -65.58072 | 37639 ft | 518 kts | 91° |
| 2026-04-12 02:57 | 18.43731 | -65.54287 | 37064 ft | 516 kts | 91° |
| 2026-04-12 02:57 | 18.43652 | -65.50517 | 36499 ft | 514 kts | 91° |
| 2026-04-12 02:57 | 18.43573 | -65.46757 | 35927 ft | 512 kts | 90° |
| 2026-04-12 02:57 | 18.43494 | -65.43020 | 35502 ft | 507 kts | 90° |
| 2026-04-12 02:58 | 18.43416 | -65.39327 | 35063 ft | 503 kts | 90° |
| 2026-04-12 02:58 | 18.43337 | -65.35663 | 34638 ft | 498 kts | 91° |
| 2026-04-12 02:58 | 18.43258 | -65.32035 | 34208 ft | 493 kts | 91° |
| 2026-04-12 02:58 | 18.43180 | -65.28446 | 33729 ft | 488 kts | 91° |
| 2026-04-12 02:59 | 18.43102 | -65.24886 | 33260 ft | 483 kts | 91° |
| 2026-04-12 02:59 | 18.43024 | -65.21370 | 32842 ft | 477 kts | 91° |
| 2026-04-12 02:59 | 18.42946 | -65.17897 | 32409 ft | 472 kts | 91° |
| 2026-04-12 02:59 | 18.42869 | -65.14469 | 32008 ft | 466 kts | 91° |
| 2026-04-12 03:00 | 18.42792 | -65.11070 | 31590 ft | 461 kts | 91° |
| 2026-04-12 03:00 | 18.42715 | -65.07711 | 31187 ft | 456 kts | 91° |
| 2026-04-12 03:00 | 18.42638 | -65.04387 | 30791 ft | 452 kts | 91° |
| 2026-04-12 03:00 | 18.42561 | -65.01100 | 30399 ft | 447 kts | 91° |
| 2026-04-12 03:01 | 18.42485 | -64.97842 | 29985 ft | 442 kts | 91° |
| 2026-04-12 03:01 | 18.42409 | -64.94621 | 29541 ft | 437 kts | 91° |
| 2026-04-12 03:01 | 18.42333 | -64.91442 | 29115 ft | 431 kts | 92° |
| 2026-04-12 03:01 | 18.42258 | -64.88307 | 28698 ft | 426 kts | 92° |
| 2026-04-12 03:02 | 18.42184 | -64.85251 | 28286 ft | 421 kts | 92° |
| 2026-04-12 03:02 | 18.42110 | -64.82186 | 27869 ft | 416 kts | 92° |
| 2026-04-12 03:02 | 18.42036 | -64.79157 | 27440 ft | 412 kts | 92° |
| 2026-04-12 03:02 | 18.41962 | -64.76158 | 27044 ft | 408 kts | 92° |
| 2026-04-12 03:03 | 18.41888 | -64.73186 | 26628 ft | 404 kts | 92° |
| 2026-04-12 03:03 | 18.41815 | -64.70238 | 26223 ft | 401 kts | 92° |
| 2026-04-12 03:03 | 18.41742 | -64.67323 | 25842 ft | 397 kts | 92° |
| 2026-04-12 03:03 | 18.41669 | -64.64423 | 25447 ft | 394 kts | 92° |
| 2026-04-12 03:04 | 18.41596 | -64.61551 | 25060 ft | 391 kts | 92° |
| 2026-04-12 03:04 | 18.41523 | -64.58701 | 24668 ft | 388 kts | 92° |
| 2026-04-12 03:04 | 18.41450 | -64.55868 | 24276 ft | 386 kts | 92° |
| 2026-04-12 03:04 | 18.41377 | -64.53051 | 23885 ft | 383 kts | 92° |
| 2026-04-12 03:05 | 18.41305 | -64.50257 | 23457 ft | 381 kts | 92° |
| 2026-04-12 03:05 | 18.41232 | -64.47474 | 23001 ft | 379 kts | 92° |
| 2026-04-12 03:05 | 18.41159 | -64.44714 | 22596 ft | 375 kts | 92° |
| 2026-04-12 03:05 | 18.41088 | -64.42022 | 22193 ft | 371 kts | 92° |
| 2026-04-12 03:06 | 18.41017 | -64.39322 | 21818 ft | 367 kts | 92° |
| 2026-04-12 03:06 | 18.40945 | -64.36649 | 21404 ft | 364 kts | 92° |
| 2026-04-12 03:06 | 18.40874 | -64.34004 | 21018 ft | 360 kts | 92° |
| 2026-04-12 03:06 | 18.40803 | -64.31380 | 20624 ft | 357 kts | 92° |
| 2026-04-12 03:07 | 18.40733 | -64.28778 | 20240 ft | 354 kts | 92° |
| 2026-04-12 03:07 | 18.40662 | -64.26197 | 19852 ft | 352 kts | 92° |
| 2026-04-12 03:07 | 18.40592 | -64.23633 | 19473 ft | 349 kts | 91° |
| 2026-04-12 03:07 | 18.40522 | -64.21088 | 19100 ft | 346 kts | 91° |
| 2026-04-12 03:08 | 18.40452 | -64.18565 | 18724 ft | 344 kts | 91° |
| 2026-04-12 03:08 | 18.40382 | -64.16062 | 18357 ft | 341 kts | 91° |
| 2026-04-12 03:08 | 18.40313 | -64.13571 | 17933 ft | 338 kts | 91° |
| 2026-04-12 03:08 | 18.40244 | -64.11108 | 17567 ft | 334 kts | 91° |
| 2026-04-12 03:09 | 18.40175 | -64.08676 | 17195 ft | 331 kts | 91° |
| 2026-04-12 03:09 | 18.40107 | -64.06273 | 16833 ft | 327 kts | 91° |
| 2026-04-12 03:09 | 18.40040 | -64.03894 | 16468 ft | 323 kts | 91° |
| 2026-04-12 03:09 | 18.39972 | -64.01540 | 16118 ft | 320 kts | 91° |
| 2026-04-12 03:10 | 18.39906 | -63.99209 | 15747 ft | 317 kts | 90° |
| 2026-04-12 03:10 | 18.39840 | -63.96904 | 15400 ft | 314 kts | 90° |
| 2026-04-12 03:10 | 18.39773 | -63.94614 | 15049 ft | 311 kts | 90° |
| 2026-04-12 03:10 | 18.39707 | -63.92349 | 14697 ft | 309 kts | 91° |
| 2026-04-12 03:11 | 18.39642 | -63.90100 | 14352 ft | 306 kts | 91° |
| 2026-04-12 03:11 | 18.39578 | -63.87898 | 14011 ft | 304 kts | 90° |
| 2026-04-12 03:11 | 18.39513 | -63.85684 | 13651 ft | 301 kts | 91° |
| 2026-04-12 03:11 | 18.39449 | -63.83497 | 13310 ft | 297 kts | 91° |
| 2026-04-12 03:12 | 18.39385 | -63.81337 | 12965 ft | 294 kts | 91° |
| 2026-04-12 03:12 | 18.39321 | -63.79197 | 12629 ft | 290 kts | 91° |
| 2026-04-12 03:12 | 18.39258 | -63.77087 | 12309 ft | 287 kts | 91° |
| 2026-04-12 03:12 | 18.39196 | -63.74997 | 11966 ft | 285 kts | 91° |
| 2026-04-12 03:13 | 18.39134 | -63.72920 | 11632 ft | 283 kts | 91° |
| 2026-04-12 03:13 | 18.39071 | -63.70856 | 11285 ft | 281 kts | 91° |
| 2026-04-12 03:13 | 18.39009 | -63.68805 | 10941 ft | 280 kts | 92° |
| 2026-04-12 03:13 | 18.38639 | -63.66815 | 10589 ft | 278 kts | 116° |
| 2026-04-12 03:14 | 18.37549 | -63.65180 | 10609 ft | 271 kts | 133° |
| 2026-04-12 03:14 | 18.36207 | -63.63786 | 10607 ft | 273 kts | 136° |
| 2026-04-12 03:14 | 18.34943 | -63.62200 | 10311 ft | 296 kts | 117° |
| 2026-04-12 03:14 | 18.34436 | -63.60164 | 10181 ft | 289 kts | 92° |
| 2026-04-12 03:15 | 18.34480 | -63.58086 | 9938 ft | 282 kts | 86° |
| 2026-04-12 03:15 | 18.34614 | -63.56061 | 9849 ft | 273 kts | 88° |
| 2026-04-12 03:15 | 18.34294 | -63.54122 | 9580 ft | 268 kts | 116° |
| 2026-04-12 03:15 | 18.33167 | -63.52595 | 9236 ft | 268 kts | 142° |
| 2026-04-12 03:16 | 18.31478 | -63.51814 | 8922 ft | 268 kts | 171° |
| 2026-04-12 03:16 | 18.29636 | -63.51965 | 8590 ft | 269 kts | 199° |
| 2026-04-12 03:16 | 18.28056 | -63.52961 | 8536 ft | 263 kts | 217° |
| 2026-04-12 03:16 | 18.26598 | -63.54160 | 8344 ft | 269 kts | 217° |
| 2026-04-12 03:17 | 18.25133 | -63.55390 | 8381 ft | 273 kts | 217° |
| 2026-04-12 03:17 | 18.23634 | -63.56654 | 8347 ft | 280 kts | 217° |
| 2026-04-12 03:17 | 18.22109 | -63.57940 | 8244 ft | 278 kts | 217° |
| 2026-04-12 03:17 | 18.20609 | -63.59204 | 8233 ft | 275 kts | 218° |
| 2026-04-12 03:18 | 18.19114 | -63.60466 | 8230 ft | 276 kts | 217° |
| 2026-04-12 03:18 | 18.17451 | -63.61451 | 7883 ft | 277 kts | 190° |
| 2026-04-12 03:18 | 18.15614 | -63.61858 | 7689 ft | 269 kts | 198° |
| 2026-04-12 03:18 | 18.13881 | -63.62581 | 7604 ft | 264 kts | 199° |
| 2026-04-12 03:19 | 18.12174 | -63.63320 | 7446 ft | 269 kts | 200° |
| 2026-04-12 03:19 | 18.10395 | -63.63822 | 7426 ft | 264 kts | 175° |
| 2026-04-12 03:19 | 18.08680 | -63.63222 | 7442 ft | 264 kts | 141° |
| 2026-04-12 03:19 | 18.07571 | -63.61703 | 7413 ft | 266 kts | 114° |
| 2026-04-12 03:20 | 18.07010 | -63.59872 | 7042 ft | 267 kts | 102° |
| 2026-04-12 03:20 | 18.06653 | -63.57949 | 6745 ft | 263 kts | 100° |
| 2026-04-12 03:20 | 18.06333 | -63.56093 | 6441 ft | 260 kts | 100° |
| 2026-04-12 03:20 | 18.06012 | -63.54239 | 6182 ft | 255 kts | 100° |
| 2026-04-12 03:21 | 18.05693 | -63.52436 | 5883 ft | 252 kts | 100° |
| 2026-04-12 03:21 | 18.05374 | -63.50663 | 5713 ft | 246 kts | 101° |
| 2026-04-12 03:21 | 18.05052 | -63.48901 | 5502 ft | 240 kts | 101° |
| 2026-04-12 03:21 | 18.04734 | -63.47174 | 5143 ft | 239 kts | 101° |
| 2026-04-12 03:22 | 18.04427 | -63.45516 | 4913 ft | 227 kts | 101° |
| 2026-04-12 03:22 | 18.04130 | -63.43922 | 4712 ft | 216 kts | 101° |
| 2026-04-12 03:22 | 18.03846 | -63.42400 | 4420 ft | 210 kts | 101° |
| 2026-04-12 03:22 | 18.03566 | -63.40900 | 4177 ft | 205 kts | 102° |
| 2026-04-12 03:23 | 18.03298 | -63.39470 | 3928 ft | 194 kts | 101° |
| 2026-04-12 03:23 | 18.03053 | -63.38160 | 3842 ft | 173 kts | 102° |
| 2026-04-12 03:23 | 18.02832 | -63.36983 | 3740 ft | 159 kts | 102° |
| 2026-04-12 03:23 | 18.02624 | -63.35870 | 3673 ft | 153 kts | 102° |
| 2026-04-12 03:24 | 18.02420 | -63.34788 | 3618 ft | 153 kts | 102° |
| 2026-04-12 03:24 | 18.02192 | -63.33576 | 3719 ft | 179 kts | 101° |
| 2026-04-12 03:24 | 18.01953 | -63.32309 | 3653 ft | 171 kts | 102° |
| 2026-04-12 03:24 | 18.01737 | -63.31156 | 3517 ft | 154 kts | 102° |
| 2026-04-12 03:25 | 18.01533 | -63.30065 | 3133 ft | 153 kts | 100° |
| 2026-04-12 03:25 | 18.01527 | -63.28964 | 2760 ft | 149 kts | 86° |
| 2026-04-12 03:25 | 18.01666 | -63.27879 | 2309 ft | 151 kts | 84° |
| 2026-04-12 03:25 | 18.01820 | -63.26796 | 1895 ft | 150 kts | 84° |
| 2026-04-12 03:26 | 18.01975 | -63.25711 | 1782 ft | 152 kts | 83° |
| 2026-04-12 03:26 | 18.02132 | -63.24620 | 1721 ft | 149 kts | 85° |
| 2026-04-12 03:26 | 18.02282 | -63.23572 | 1698 ft | 138 kts | 84° |
| 2026-04-12 03:26 | 18.02418 | -63.22614 | 1680 ft | 130 kts | 83° |
| 2026-04-12 03:27 | 18.02550 | -63.21694 | 1716 ft | 128 kts | 85° |
| 2026-04-12 03:27 | 18.02683 | -63.20758 | 1705 ft | 130 kts | 84° |
| 2026-04-12 03:27 | 18.02816 | -63.19819 | 1554 ft | 129 kts | 83° |
| 2026-04-12 03:27 | 18.02948 | -63.18898 | 1398 ft | 127 kts | 83° |
| 2026-04-12 03:28 | 18.03080 | -63.17979 | 1234 ft | 130 kts | 85° |
| 2026-04-12 03:28 | 18.03214 | -63.17039 | 1063 ft | 130 kts | 85° |
| 2026-04-12 03:28 | 18.03344 | -63.16104 | 896 ft | 128 kts | 83° |
| 2026-04-12 03:28 | 18.03464 | -63.15183 | 663 ft | 130 kts | 85° |
| 2026-04-12 03:29 | 18.03583 | -63.14242 | 539 ft | 126 kts | 81° |
| 2026-04-12 03:29 | 18.03742 | -63.13331 | 324 ft | 127 kts | 81° |
| 2026-04-12 03:29 | 18.03884 | -63.12418 | 120 ft | 128 kts | 81° |
| 2026-04-12 03:29 | 18.04014 | -63.11488 | 26 ft | 119 kts | 82° |
| 2026-04-12 03:30 | 18.04092 | -63.10861 | 26 ft | 57 kts | 86° |
| 2026-04-12 03:30 | 18.04107 | -63.10697 | 26 ft | 0 kts | 45° |
| 2026-04-12 03:30 | 18.04134 | -63.10706 | 26 ft | 7 kts | 275° |
| 2026-04-12 03:31 | 18.04102 | -63.10847 | 26 ft | 27 kts | 257° |
| 2026-04-12 03:31 | 18.04130 | -63.10989 | 27 ft | 21 kts | 328° |
| 2026-04-12 03:31 | 18.04158 | -63.11109 | 27 ft | 18 kts | 256° |
| 2026-04-12 03:31 | 18.04139 | -63.11224 | 27 ft | 14 kts | 264° |
| 2026-04-12 03:32 | 18.04160 | -63.11299 | 27 ft | 9 kts | 329° |
| 2026-04-12 03:32 | 18.04206 | -63.11314 | 28 ft | 6 kts | 334° |
| 2026-04-12 03:32 | 18.04233 | -63.11343 | 28 ft | 6 kts | 295° |
| 2026-04-12 03:32 | 18.04233 | -63.11384 | 28 ft | 5 kts | 261° |
| 2026-04-12 03:33 | 18.04233 | -63.11413 | 28 ft | 3 kts | 287° |
| 2026-04-12 03:33 | 18.04243 | -63.11421 | 28 ft | 2 kts | 340° |
| 2026-04-12 03:33 | 18.04267 | -63.11424 | 28 ft | 5 kts | 352° |
| 2026-04-12 03:33 | 18.04295 | -63.11428 | 28 ft | 2 kts | 353° |
| 2026-04-12 03:34 | 18.04307 | -63.11429 | 28 ft | 1 kts | 353° |
| 2026-04-12 03:34 | 18.04313 | -63.11430 | 28 ft | 2 kts | 352° |
| 2026-04-12 03:34 | 18.04318 | -63.11431 | 28 ft | 0 kts | 351° |